sensor_id;sensor_type;location;lat;lon;timestamp;P1;durP1;ratioP1;P2;durP2;ratioP2
18249;SDS011;27980;52.126;5.572;2023-06-22T00:00:44;3.78;;;3.30;;
18249;SDS011;27980;52.126;5.572;2023-06-22T00:03:12;3.97;;;3.35;;
18249;SDS011;27980;52.126;5.572;2023-06-22T00:05:38;4.68;;;3.40;;
18249;SDS011;27980;52.126;5.572;2023-06-22T00:08:05;4.15;;;3.13;;
18249;SDS011;27980;52.126;5.572;2023-06-22T00:10:31;4.57;;;3.55;;
18249;SDS011;27980;52.126;5.572;2023-06-22T00:12:57;6.07;;;3.50;;
18249;SDS011;27980;52.126;5.572;2023-06-22T00:15:24;5.40;;;3.63;;
18249;SDS011;27980;52.126;5.572;2023-06-22T00:17:50;4.85;;;4.05;;
18249;SDS011;27980;52.126;5.572;2023-06-22T00:20:18;3.72;;;3.17;;
18249;SDS011;27980;52.126;5.572;2023-06-22T00:22:44;6.85;;;4.20;;
18249;SDS011;27980;52.126;5.572;2023-06-22T00:25:12;4.25;;;3.85;;
18249;SDS011;27980;52.126;5.572;2023-06-22T00:27:39;4.53;;;3.75;;
18249;SDS011;27980;52.126;5.572;2023-06-22T00:30:06;5.65;;;3.80;;
18249;SDS011;27980;52.126;5.572;2023-06-22T00:32:32;4.38;;;3.40;;
18249;SDS011;27980;52.126;5.572;2023-06-22T00:35:01;5.20;;;3.55;;
18249;SDS011;27980;52.126;5.572;2023-06-22T00:37:31;6.05;;;3.85;;
18249;SDS011;27980;52.126;5.572;2023-06-22T00:39:57;3.90;;;3.50;;
18249;SDS011;27980;52.126;5.572;2023-06-22T00:42:24;5.40;;;4.28;;
18249;SDS011;27980;52.126;5.572;2023-06-22T00:44:50;4.28;;;3.42;;
18249;SDS011;27980;52.126;5.572;2023-06-22T00:47:17;4.70;;;3.63;;
18249;SDS011;27980;52.126;5.572;2023-06-22T00:49:44;5.60;;;4.45;;
18249;SDS011;27980;52.126;5.572;2023-06-22T00:52:11;5.40;;;3.97;;
18249;SDS011;27980;52.126;5.572;2023-06-22T00:54:47;5.35;;;3.55;;
18249;SDS011;27980;52.126;5.572;2023-06-22T00:57:14;6.53;;;4.35;;
18249;SDS011;27980;52.126;5.572;2023-06-22T00:59:41;4.85;;;3.92;;
18249;SDS011;27980;52.126;5.572;2023-06-22T01:02:08;5.22;;;4.25;;
18249;SDS011;27980;52.126;5.572;2023-06-22T01:04:36;5.13;;;3.90;;
18249;SDS011;27980;52.126;5.572;2023-06-22T01:07:03;5.78;;;4.25;;
18249;SDS011;27980;52.126;5.572;2023-06-22T01:09:31;6.47;;;4.57;;
18249;SDS011;27980;52.126;5.572;2023-06-22T01:12:04;5.18;;;4.28;;
18249;SDS011;27980;52.126;5.572;2023-06-22T01:14:32;7.03;;;4.35;;
18249;SDS011;27980;52.126;5.572;2023-06-22T01:17:00;7.32;;;4.40;;
18249;SDS011;27980;52.126;5.572;2023-06-22T01:19:29;5.75;;;3.65;;
18249;SDS011;27980;52.126;5.572;2023-06-22T01:21:57;5.57;;;3.80;;
18249;SDS011;27980;52.126;5.572;2023-06-22T01:24:26;4.55;;;3.85;;
18249;SDS011;27980;52.126;5.572;2023-06-22T01:26:56;7.20;;;4.00;;
18249;SDS011;27980;52.126;5.572;2023-06-22T01:29:25;4.28;;;3.83;;
18249;SDS011;27980;52.126;5.572;2023-06-22T01:31:52;5.22;;;4.15;;
18249;SDS011;27980;52.126;5.572;2023-06-22T01:34:20;6.75;;;4.28;;
18249;SDS011;27980;52.126;5.572;2023-06-22T01:36:48;4.85;;;3.83;;
18249;SDS011;27980;52.126;5.572;2023-06-22T01:39:15;5.78;;;4.00;;
18249;SDS011;27980;52.126;5.572;2023-06-22T01:41:42;4.93;;;4.05;;
18249;SDS011;27980;52.126;5.572;2023-06-22T01:44:09;5.38;;;4.07;;
18249;SDS011;27980;52.126;5.572;2023-06-22T01:46:38;6.35;;;4.20;;
18249;SDS011;27980;52.126;5.572;2023-06-22T01:49:05;4.18;;;3.58;;
18249;SDS011;27980;52.126;5.572;2023-06-22T01:51:32;5.80;;;4.30;;
18249;SDS011;27980;52.126;5.572;2023-06-22T01:53:58;7.70;;;3.80;;
18249;SDS011;27980;52.126;5.572;2023-06-22T01:56:25;5.18;;;3.80;;
18249;SDS011;27980;52.126;5.572;2023-06-22T01:58:55;6.05;;;4.15;;
18249;SDS011;27980;52.126;5.572;2023-06-22T02:01:24;4.60;;;3.70;;
18249;SDS011;27980;52.126;5.572;2023-06-22T02:03:55;4.22;;;3.83;;
18249;SDS011;27980;52.126;5.572;2023-06-22T02:06:24;5.00;;;3.95;;
18249;SDS011;27980;52.126;5.572;2023-06-22T02:08:53;6.30;;;4.57;;
18249;SDS011;27980;52.126;5.572;2023-06-22T02:11:21;6.55;;;4.50;;
18249;SDS011;27980;52.126;5.572;2023-06-22T02:13:48;5.28;;;4.45;;
18249;SDS011;27980;52.126;5.572;2023-06-22T02:16:15;7.55;;;4.13;;
18249;SDS011;27980;52.126;5.572;2023-06-22T02:18:45;6.60;;;4.63;;
18249;SDS011;27980;52.126;5.572;2023-06-22T02:21:13;4.88;;;4.15;;
18249;SDS011;27980;52.126;5.572;2023-06-22T02:23:39;4.90;;;4.40;;
18249;SDS011;27980;52.126;5.572;2023-06-22T02:26:06;5.18;;;4.53;;
18249;SDS011;27980;52.126;5.572;2023-06-22T02:28:33;6.50;;;4.80;;
18249;SDS011;27980;52.126;5.572;2023-06-22T02:30:59;6.10;;;4.63;;
18249;SDS011;27980;52.126;5.572;2023-06-22T02:33:25;8.45;;;4.50;;
18249;SDS011;27980;52.126;5.572;2023-06-22T02:35:52;5.88;;;4.25;;
18249;SDS011;27980;52.126;5.572;2023-06-22T02:38:21;6.80;;;4.93;;
18249;SDS011;27980;52.126;5.572;2023-06-22T02:40:49;6.20;;;4.72;;
18249;SDS011;27980;52.126;5.572;2023-06-22T02:43:15;6.10;;;4.57;;
18249;SDS011;27980;52.126;5.572;2023-06-22T02:45:42;5.32;;;4.40;;
18249;SDS011;27980;52.126;5.572;2023-06-22T02:48:08;6.70;;;5.28;;
18249;SDS011;27980;52.126;5.572;2023-06-22T02:50:34;7.38;;;4.63;;
18249;SDS011;27980;52.126;5.572;2023-06-22T02:53:01;5.60;;;4.78;;
18249;SDS011;27980;52.126;5.572;2023-06-22T02:55:29;7.85;;;5.25;;
18249;SDS011;27980;52.126;5.572;2023-06-22T02:57:57;6.40;;;4.88;;
18249;SDS011;27980;52.126;5.572;2023-06-22T03:00:26;6.65;;;4.75;;
18249;SDS011;27980;52.126;5.572;2023-06-22T03:02:56;7.20;;;4.85;;
18249;SDS011;27980;52.126;5.572;2023-06-22T03:05:23;5.95;;;5.13;;
18249;SDS011;27980;52.126;5.572;2023-06-22T03:07:51;5.93;;;4.75;;
18249;SDS011;27980;52.126;5.572;2023-06-22T03:10:17;6.68;;;5.25;;
18249;SDS011;27980;52.126;5.572;2023-06-22T03:12:45;8.30;;;5.10;;
18249;SDS011;27980;52.126;5.572;2023-06-22T03:15:12;6.53;;;4.55;;
18249;SDS011;27980;52.126;5.572;2023-06-22T03:17:40;6.70;;;5.20;;
18249;SDS011;27980;52.126;5.572;2023-06-22T03:20:07;6.57;;;5.13;;
18249;SDS011;27980;52.126;5.572;2023-06-22T03:22:35;7.50;;;5.03;;
18249;SDS011;27980;52.126;5.572;2023-06-22T03:25:02;8.95;;;5.97;;
18249;SDS011;27980;52.126;5.572;2023-06-22T03:27:28;7.63;;;5.55;;
18249;SDS011;27980;52.126;5.572;2023-06-22T03:29:56;7.25;;;5.45;;
18249;SDS011;27980;52.126;5.572;2023-06-22T03:32:23;6.07;;;5.03;;
18249;SDS011;27980;52.126;5.572;2023-06-22T03:34:50;6.63;;;5.68;;
18249;SDS011;27980;52.126;5.572;2023-06-22T03:37:16;10.35;;;5.93;;
18249;SDS011;27980;52.126;5.572;2023-06-22T03:39:43;7.55;;;5.63;;
18249;SDS011;27980;52.126;5.572;2023-06-22T03:42:09;8.95;;;5.90;;
18249;SDS011;27980;52.126;5.572;2023-06-22T03:44:36;8.38;;;5.03;;
18249;SDS011;27980;52.126;5.572;2023-06-22T03:47:04;9.35;;;6.65;;
18249;SDS011;27980;52.126;5.572;2023-06-22T03:49:32;9.65;;;5.55;;
18249;SDS011;27980;52.126;5.572;2023-06-22T03:51:59;8.00;;;5.80;;
18249;SDS011;27980;52.126;5.572;2023-06-22T03:54:25;8.52;;;5.85;;
18249;SDS011;27980;52.126;5.572;2023-06-22T03:56:52;8.85;;;6.55;;
18249;SDS011;27980;52.126;5.572;2023-06-22T03:59:19;7.90;;;6.00;;
18249;SDS011;27980;52.126;5.572;2023-06-22T04:01:45;10.02;;;6.60;;
18249;SDS011;27980;52.126;5.572;2023-06-22T04:04:14;10.32;;;7.20;;
18249;SDS011;27980;52.126;5.572;2023-06-22T04:06:42;12.30;;;7.28;;
18249;SDS011;27980;52.126;5.572;2023-06-22T04:09:08;9.52;;;7.43;;
18249;SDS011;27980;52.126;5.572;2023-06-22T04:11:34;12.05;;;8.07;;
18249;SDS011;27980;52.126;5.572;2023-06-22T04:14:01;11.18;;;8.15;;
18249;SDS011;27980;52.126;5.572;2023-06-22T04:16:28;10.52;;;8.63;;
18249;SDS011;27980;52.126;5.572;2023-06-22T04:18:54;11.32;;;8.50;;
18249;SDS011;27980;52.126;5.572;2023-06-22T04:21:24;12.63;;;9.05;;
18249;SDS011;27980;52.126;5.572;2023-06-22T04:23:51;11.85;;;7.95;;
18249;SDS011;27980;52.126;5.572;2023-06-22T04:26:17;12.77;;;9.25;;
18249;SDS011;27980;52.126;5.572;2023-06-22T04:28:45;14.20;;;8.30;;
18249;SDS011;27980;52.126;5.572;2023-06-22T04:31:16;14.20;;;8.70;;
18249;SDS011;27980;52.126;5.572;2023-06-22T04:33:43;13.48;;;8.15;;
18249;SDS011;27980;52.126;5.572;2023-06-22T04:36:09;12.98;;;9.35;;
18249;SDS011;27980;52.126;5.572;2023-06-22T04:38:39;14.27;;;9.85;;
18249;SDS011;27980;52.126;5.572;2023-06-22T04:41:06;18.05;;;10.38;;
18249;SDS011;27980;52.126;5.572;2023-06-22T04:43:34;19.15;;;11.48;;
18249;SDS011;27980;52.126;5.572;2023-06-22T04:46:03;16.20;;;11.32;;
18249;SDS011;27980;52.126;5.572;2023-06-22T04:48:29;17.83;;;11.77;;
18249;SDS011;27980;52.126;5.572;2023-06-22T04:50:57;17.02;;;11.95;;
18249;SDS011;27980;52.126;5.572;2023-06-22T04:53:28;22.40;;;13.48;;
18249;SDS011;27980;52.126;5.572;2023-06-22T04:55:56;17.77;;;12.95;;
18249;SDS011;27980;52.126;5.572;2023-06-22T04:58:23;17.42;;;12.65;;
18249;SDS011;27980;52.126;5.572;2023-06-22T05:00:52;21.13;;;13.23;;
18249;SDS011;27980;52.126;5.572;2023-06-22T05:03:18;23.02;;;12.95;;
18249;SDS011;27980;52.126;5.572;2023-06-22T05:05:45;18.65;;;13.73;;
18249;SDS011;27980;52.126;5.572;2023-06-22T05:08:11;23.45;;;14.68;;
18249;SDS011;27980;52.126;5.572;2023-06-22T05:10:38;18.85;;;13.88;;
18249;SDS011;27980;52.126;5.572;2023-06-22T05:13:08;18.13;;;13.70;;
18249;SDS011;27980;52.126;5.572;2023-06-22T05:15:34;20.55;;;14.25;;
18249;SDS011;27980;52.126;5.572;2023-06-22T05:18:04;22.15;;;14.95;;
18249;SDS011;27980;52.126;5.572;2023-06-22T05:20:31;22.17;;;15.05;;
18249;SDS011;27980;52.126;5.572;2023-06-22T05:22:58;22.33;;;14.23;;
18249;SDS011;27980;52.126;5.572;2023-06-22T05:25:24;24.27;;;15.57;;
18249;SDS011;27980;52.126;5.572;2023-06-22T05:27:52;20.80;;;15.50;;
18249;SDS011;27980;52.126;5.572;2023-06-22T05:30:20;20.42;;;14.73;;
18249;SDS011;27980;52.126;5.572;2023-06-22T05:32:46;21.17;;;14.80;;
18249;SDS011;27980;52.126;5.572;2023-06-22T05:35:13;20.23;;;14.10;;
18249;SDS011;27980;52.126;5.572;2023-06-22T05:37:39;21.65;;;15.10;;
18249;SDS011;27980;52.126;5.572;2023-06-22T05:40:06;21.70;;;16.00;;
18249;SDS011;27980;52.126;5.572;2023-06-22T05:42:36;21.00;;;14.90;;
18249;SDS011;27980;52.126;5.572;2023-06-22T05:45:02;23.20;;;15.90;;
18249;SDS011;27980;52.126;5.572;2023-06-22T05:47:30;21.25;;;15.25;;
18249;SDS011;27980;52.126;5.572;2023-06-22T05:49:56;19.23;;;14.20;;
18249;SDS011;27980;52.126;5.572;2023-06-22T05:52:23;21.65;;;14.75;;
18249;SDS011;27980;52.126;5.572;2023-06-22T05:54:49;21.30;;;13.70;;
18249;SDS011;27980;52.126;5.572;2023-06-22T05:57:16;22.40;;;14.55;;
18249;SDS011;27980;52.126;5.572;2023-06-22T05:59:42;19.27;;;14.32;;
18249;SDS011;27980;52.126;5.572;2023-06-22T06:02:09;16.60;;;13.07;;
18249;SDS011;27980;52.126;5.572;2023-06-22T06:04:36;18.67;;;12.88;;
18249;SDS011;27980;52.126;5.572;2023-06-22T06:07:03;17.65;;;13.20;;
18249;SDS011;27980;52.126;5.572;2023-06-22T06:09:29;18.08;;;12.57;;
18249;SDS011;27980;52.126;5.572;2023-06-22T06:11:56;18.70;;;13.60;;
18249;SDS011;27980;52.126;5.572;2023-06-22T06:14:23;19.35;;;13.77;;
18249;SDS011;27980;52.126;5.572;2023-06-22T06:16:50;16.00;;;12.52;;
18249;SDS011;27980;52.126;5.572;2023-06-22T06:19:16;22.02;;;14.48;;
18249;SDS011;27980;52.126;5.572;2023-06-22T06:21:44;17.90;;;13.63;;
18249;SDS011;27980;52.126;5.572;2023-06-22T06:24:12;19.42;;;13.38;;
18249;SDS011;27980;52.126;5.572;2023-06-22T06:26:39;18.42;;;12.75;;
18249;SDS011;27980;52.126;5.572;2023-06-22T06:29:05;16.40;;;13.07;;
18249;SDS011;27980;52.126;5.572;2023-06-22T06:31:31;19.63;;;12.75;;
18249;SDS011;27980;52.126;5.572;2023-06-22T06:33:58;19.23;;;12.57;;
18249;SDS011;27980;52.126;5.572;2023-06-22T06:36:25;16.30;;;12.25;;
18249;SDS011;27980;52.126;5.572;2023-06-22T06:38:53;16.10;;;12.40;;
18249;SDS011;27980;52.126;5.572;2023-06-22T06:41:19;17.52;;;11.95;;
18249;SDS011;27980;52.126;5.572;2023-06-22T06:43:46;16.85;;;11.65;;
18249;SDS011;27980;52.126;5.572;2023-06-22T06:46:12;16.50;;;11.45;;
18249;SDS011;27980;52.126;5.572;2023-06-22T06:48:38;14.05;;;10.98;;
18249;SDS011;27980;52.126;5.572;2023-06-22T06:51:05;16.85;;;10.63;;
18249;SDS011;27980;52.126;5.572;2023-06-22T06:53:34;13.55;;;10.25;;
18249;SDS011;27980;52.126;5.572;2023-06-22T06:56:02;13.73;;;10.27;;
18249;SDS011;27980;52.126;5.572;2023-06-22T06:58:30;14.88;;;9.70;;
18249;SDS011;27980;52.126;5.572;2023-06-22T07:00:56;10.65;;;8.80;;
18249;SDS011;27980;52.126;5.572;2023-06-22T07:03:23;10.07;;;8.88;;
18249;SDS011;27980;52.126;5.572;2023-06-22T07:05:49;12.65;;;8.27;;
18249;SDS011;27980;52.126;5.572;2023-06-22T07:08:18;13.20;;;9.27;;
18249;SDS011;27980;52.126;5.572;2023-06-22T07:10:45;12.43;;;8.82;;
18249;SDS011;27980;52.126;5.572;2023-06-22T07:13:12;12.32;;;7.95;;
18249;SDS011;27980;52.126;5.572;2023-06-22T07:15:39;9.07;;;7.97;;
18249;SDS011;27980;52.126;5.572;2023-06-22T07:18:05;9.77;;;7.90;;
18249;SDS011;27980;52.126;5.572;2023-06-22T07:20:32;9.77;;;8.55;;
18249;SDS011;27980;52.126;5.572;2023-06-22T07:22:58;9.15;;;7.35;;
18249;SDS011;27980;52.126;5.572;2023-06-22T07:25:25;8.57;;;6.97;;
18249;SDS011;27980;52.126;5.572;2023-06-22T07:27:57;8.18;;;7.25;;
18249;SDS011;27980;52.126;5.572;2023-06-22T07:30:25;9.38;;;6.82;;
18249;SDS011;27980;52.126;5.572;2023-06-22T07:32:53;9.68;;;6.88;;
18249;SDS011;27980;52.126;5.572;2023-06-22T07:35:21;8.82;;;6.50;;
18249;SDS011;27980;52.126;5.572;2023-06-22T07:37:47;8.98;;;6.70;;
18249;SDS011;27980;52.126;5.572;2023-06-22T07:40:14;7.78;;;6.68;;
18249;SDS011;27980;52.126;5.572;2023-06-22T07:42:40;7.78;;;6.20;;
18249;SDS011;27980;52.126;5.572;2023-06-22T07:45:07;8.23;;;6.28;;
18249;SDS011;27980;52.126;5.572;2023-06-22T07:47:35;8.40;;;6.20;;
18249;SDS011;27980;52.126;5.572;2023-06-22T07:50:02;9.30;;;6.72;;
18249;SDS011;27980;52.126;5.572;2023-06-22T07:52:29;7.00;;;5.22;;
18249;SDS011;27980;52.126;5.572;2023-06-22T07:54:55;8.27;;;6.72;;
18249;SDS011;27980;52.126;5.572;2023-06-22T07:57:21;7.47;;;5.65;;
18249;SDS011;27980;52.126;5.572;2023-06-22T07:59:48;9.10;;;5.78;;
18249;SDS011;27980;52.126;5.572;2023-06-22T08:02:15;7.72;;;6.47;;
18249;SDS011;27980;52.126;5.572;2023-06-22T08:04:42;8.05;;;5.97;;
18249;SDS011;27980;52.126;5.572;2023-06-22T08:07:10;7.28;;;6.38;;
18249;SDS011;27980;52.126;5.572;2023-06-22T08:09:36;6.97;;;5.70;;
18249;SDS011;27980;52.126;5.572;2023-06-22T08:12:03;7.68;;;5.38;;
18249;SDS011;27980;52.126;5.572;2023-06-22T08:14:30;9.20;;;5.50;;
18249;SDS011;27980;52.126;5.572;2023-06-22T08:16:56;6.30;;;5.50;;
18249;SDS011;27980;52.126;5.572;2023-06-22T08:19:22;6.88;;;4.95;;
18249;SDS011;27980;52.126;5.572;2023-06-22T08:21:50;10.15;;;5.65;;
18249;SDS011;27980;52.126;5.572;2023-06-22T08:24:17;5.72;;;4.65;;
18249;SDS011;27980;52.126;5.572;2023-06-22T08:26:43;7.03;;;5.25;;
18249;SDS011;27980;52.126;5.572;2023-06-22T08:29:10;5.57;;;4.90;;
18249;SDS011;27980;52.126;5.572;2023-06-22T08:31:36;6.03;;;4.72;;
18249;SDS011;27980;52.126;5.572;2023-06-22T08:34:02;7.30;;;5.00;;
18249;SDS011;27980;52.126;5.572;2023-06-22T08:36:29;5.43;;;4.07;;
18249;SDS011;27980;52.126;5.572;2023-06-22T08:38:59;4.82;;;3.80;;
18249;SDS011;27980;52.126;5.572;2023-06-22T08:41:26;5.40;;;4.47;;
18249;SDS011;27980;52.126;5.572;2023-06-22T08:43:52;5.25;;;3.90;;
18249;SDS011;27980;52.126;5.572;2023-06-22T08:46:20;4.43;;;3.88;;
18249;SDS011;27980;52.126;5.572;2023-06-22T08:48:48;4.05;;;3.65;;
18249;SDS011;27980;52.126;5.572;2023-06-22T08:51:15;4.32;;;3.92;;
18249;SDS011;27980;52.126;5.572;2023-06-22T08:53:42;5.05;;;2.90;;
18249;SDS011;27980;52.126;5.572;2023-06-22T08:56:11;4.63;;;3.63;;
18249;SDS011;27980;52.126;5.572;2023-06-22T08:58:37;5.45;;;3.55;;
18249;SDS011;27980;52.126;5.572;2023-06-22T09:01:04;4.47;;;3.60;;
18249;SDS011;27980;52.126;5.572;2023-06-22T09:03:31;4.97;;;3.28;;
18249;SDS011;27980;52.126;5.572;2023-06-22T09:05:57;5.05;;;3.75;;
18249;SDS011;27980;52.126;5.572;2023-06-22T09:08:24;5.15;;;4.05;;
18249;SDS011;27980;52.126;5.572;2023-06-22T09:10:50;4.07;;;3.67;;
18249;SDS011;27980;52.126;5.572;2023-06-22T09:13:18;5.38;;;3.15;;
18249;SDS011;27980;52.126;5.572;2023-06-22T09:15:44;4.22;;;3.45;;
18249;SDS011;27980;52.126;5.572;2023-06-22T09:18:10;3.15;;;2.83;;
18249;SDS011;27980;52.126;5.572;2023-06-22T09:20:37;3.53;;;2.67;;
18249;SDS011;27980;52.126;5.572;2023-06-22T09:23:03;2.97;;;2.67;;
18249;SDS011;27980;52.126;5.572;2023-06-22T09:25:30;2.67;;;2.08;;
18249;SDS011;27980;52.126;5.572;2023-06-22T09:27:56;4.88;;;3.53;;
18249;SDS011;27980;52.126;5.572;2023-06-22T09:30:24;3.42;;;3.05;;
18249;SDS011;27980;52.126;5.572;2023-06-22T09:32:50;5.20;;;3.53;;
18249;SDS011;27980;52.126;5.572;2023-06-22T09:35:17;3.95;;;3.45;;
18249;SDS011;27980;52.126;5.572;2023-06-22T09:37:44;4.10;;;3.08;;
18249;SDS011;27980;52.126;5.572;2023-06-22T09:40:10;2.90;;;2.58;;
18249;SDS011;27980;52.126;5.572;2023-06-22T09:42:38;5.20;;;2.88;;
18249;SDS011;27980;52.126;5.572;2023-06-22T09:45:05;4.60;;;3.58;;
18249;SDS011;27980;52.126;5.572;2023-06-22T09:47:33;3.95;;;3.15;;
18249;SDS011;27980;52.126;5.572;2023-06-22T09:49:59;4.20;;;2.80;;
18249;SDS011;27980;52.126;5.572;2023-06-22T09:52:25;5.35;;;2.97;;
18249;SDS011;27980;52.126;5.572;2023-06-22T09:54:52;4.07;;;3.10;;
18249;SDS011;27980;52.126;5.572;2023-06-22T09:57:18;9.13;;;2.90;;
18249;SDS011;27980;52.126;5.572;2023-06-22T09:59:45;6.60;;;3.00;;
18249;SDS011;27980;52.126;5.572;2023-06-22T10:02:12;3.33;;;3.03;;
18249;SDS011;27980;52.126;5.572;2023-06-22T10:04:40;3.38;;;2.88;;
18249;SDS011;27980;52.126;5.572;2023-06-22T10:07:06;2.90;;;2.70;;
18249;SDS011;27980;52.126;5.572;2023-06-22T10:09:33;4.65;;;3.25;;
18249;SDS011;27980;52.126;5.572;2023-06-22T10:11:59;5.00;;;3.42;;
18249;SDS011;27980;52.126;5.572;2023-06-22T10:14:25;4.22;;;3.22;;
18249;SDS011;27980;52.126;5.572;2023-06-22T10:16:54;6.10;;;4.05;;
18249;SDS011;27980;52.126;5.572;2023-06-22T10:19:21;8.68;;;3.83;;
18249;SDS011;27980;52.126;5.572;2023-06-22T10:21:49;4.57;;;4.07;;
18249;SDS011;27980;52.126;5.572;2023-06-22T10:24:15;5.35;;;3.67;;
18249;SDS011;27980;52.126;5.572;2023-06-22T10:26:41;7.85;;;3.90;;
18249;SDS011;27980;52.126;5.572;2023-06-22T10:29:08;3.90;;;3.17;;
18249;SDS011;27980;52.126;5.572;2023-06-22T10:31:34;4.50;;;3.90;;
18249;SDS011;27980;52.126;5.572;2023-06-22T10:34:01;4.85;;;3.50;;
18249;SDS011;27980;52.126;5.572;2023-06-22T10:36:27;4.70;;;2.88;;
18249;SDS011;27980;52.126;5.572;2023-06-22T10:38:56;5.18;;;3.17;;
18249;SDS011;27980;52.126;5.572;2023-06-22T10:41:24;3.90;;;2.80;;
18249;SDS011;27980;52.126;5.572;2023-06-22T10:43:50;7.15;;;3.65;;
18249;SDS011;27980;52.126;5.572;2023-06-22T10:46:17;3.10;;;2.80;;
18249;SDS011;27980;52.126;5.572;2023-06-22T10:48:43;3.90;;;2.75;;
18249;SDS011;27980;52.126;5.572;2023-06-22T10:51:10;3.65;;;2.88;;
18249;SDS011;27980;52.126;5.572;2023-06-22T10:53:37;3.88;;;2.88;;
18249;SDS011;27980;52.126;5.572;2023-06-22T10:56:04;5.30;;;3.35;;
18249;SDS011;27980;52.126;5.572;2023-06-22T10:58:31;5.22;;;3.40;;
18249;SDS011;27980;52.126;5.572;2023-06-22T11:00:57;5.78;;;2.90;;
18249;SDS011;27980;52.126;5.572;2023-06-22T11:03:25;3.92;;;3.20;;
18249;SDS011;27980;52.126;5.572;2023-06-22T11:05:51;3.60;;;2.53;;
18249;SDS011;27980;52.126;5.572;2023-06-22T11:08:17;3.85;;;2.83;;
18249;SDS011;27980;52.126;5.572;2023-06-22T11:10:44;3.40;;;3.10;;
18249;SDS011;27980;52.126;5.572;2023-06-22T11:13:11;4.60;;;3.20;;
18249;SDS011;27980;52.126;5.572;2023-06-22T11:15:38;4.15;;;3.08;;
18249;SDS011;27980;52.126;5.572;2023-06-22T11:18:05;4.60;;;2.42;;
18249;SDS011;27980;52.126;5.572;2023-06-22T11:20:32;3.97;;;2.47;;
18249;SDS011;27980;52.126;5.572;2023-06-22T11:23:01;4.90;;;3.08;;
18249;SDS011;27980;52.126;5.572;2023-06-22T11:25:27;5.45;;;3.15;;
18249;SDS011;27980;52.126;5.572;2023-06-22T11:27:55;3.58;;;2.55;;
18249;SDS011;27980;52.126;5.572;2023-06-22T11:30:23;4.35;;;3.80;;
18249;SDS011;27980;52.126;5.572;2023-06-22T11:32:50;4.53;;;3.72;;
18249;SDS011;27980;52.126;5.572;2023-06-22T11:35:16;4.63;;;3.35;;
18249;SDS011;27980;52.126;5.572;2023-06-22T11:37:44;3.58;;;3.20;;
18249;SDS011;27980;52.126;5.572;2023-06-22T11:40:11;4.47;;;3.88;;
18249;SDS011;27980;52.126;5.572;2023-06-22T11:42:37;4.75;;;3.95;;
18249;SDS011;27980;52.126;5.572;2023-06-22T11:45:04;5.40;;;4.07;;
18249;SDS011;27980;52.126;5.572;2023-06-22T11:47:33;6.43;;;4.38;;
18249;SDS011;27980;52.126;5.572;2023-06-22T11:49:59;5.18;;;3.85;;
18249;SDS011;27980;52.126;5.572;2023-06-22T11:52:28;5.32;;;4.18;;
18249;SDS011;27980;52.126;5.572;2023-06-22T11:54:54;4.93;;;3.75;;
18249;SDS011;27980;52.126;5.572;2023-06-22T11:57:21;7.13;;;4.60;;
18249;SDS011;27980;52.126;5.572;2023-06-22T11:59:47;4.97;;;4.43;;
18249;SDS011;27980;52.126;5.572;2023-06-22T12:02:14;7.50;;;4.63;;
18249;SDS011;27980;52.126;5.572;2023-06-22T12:04:41;6.38;;;4.55;;
18249;SDS011;27980;52.126;5.572;2023-06-22T12:07:08;5.13;;;4.30;;
18249;SDS011;27980;52.126;5.572;2023-06-22T12:09:34;6.90;;;5.03;;
18249;SDS011;27980;52.126;5.572;2023-06-22T12:12:01;5.38;;;4.30;;
18249;SDS011;27980;52.126;5.572;2023-06-22T12:14:27;4.47;;;3.88;;
18249;SDS011;27980;52.126;5.572;2023-06-22T12:16:54;5.95;;;4.30;;
18249;SDS011;27980;52.126;5.572;2023-06-22T12:19:20;5.18;;;4.30;;
18249;SDS011;27980;52.126;5.572;2023-06-22T12:21:48;6.03;;;4.60;;
18249;SDS011;27980;52.126;5.572;2023-06-22T12:24:15;6.90;;;5.30;;
18249;SDS011;27980;52.126;5.572;2023-06-22T12:26:41;6.38;;;5.50;;
18249;SDS011;27980;52.126;5.572;2023-06-22T12:29:07;9.05;;;6.13;;
18249;SDS011;27980;52.126;5.572;2023-06-22T12:31:35;8.05;;;6.13;;
18249;SDS011;27980;52.126;5.572;2023-06-22T12:34:01;8.65;;;7.53;;
18249;SDS011;27980;52.126;5.572;2023-06-22T12:36:28;9.57;;;7.30;;
18249;SDS011;27980;52.126;5.572;2023-06-22T12:38:57;8.98;;;7.53;;
18249;SDS011;27980;52.126;5.572;2023-06-22T12:41:23;10.65;;;7.82;;
18249;SDS011;27980;52.126;5.572;2023-06-22T12:43:49;10.75;;;8.10;;
18249;SDS011;27980;52.126;5.572;2023-06-22T12:46:18;11.25;;;8.15;;
18249;SDS011;27980;52.126;5.572;2023-06-22T12:48:45;10.18;;;8.10;;
18249;SDS011;27980;52.126;5.572;2023-06-22T12:51:12;8.68;;;7.75;;
18249;SDS011;27980;52.126;5.572;2023-06-22T12:53:46;11.07;;;8.15;;
18249;SDS011;27980;52.126;5.572;2023-06-22T12:56:13;10.85;;;8.20;;
18249;SDS011;27980;52.126;5.572;2023-06-22T12:58:40;10.73;;;7.93;;
18249;SDS011;27980;52.126;5.572;2023-06-22T13:01:06;12.35;;;8.85;;
18249;SDS011;27980;52.126;5.572;2023-06-22T13:03:33;11.77;;;9.02;;
18249;SDS011;27980;52.126;5.572;2023-06-22T13:05:59;10.02;;;8.45;;
18249;SDS011;27980;52.126;5.572;2023-06-22T13:08:25;13.68;;;9.13;;
18249;SDS011;27980;52.126;5.572;2023-06-22T13:10:52;12.35;;;9.30;;
18249;SDS011;27980;52.126;5.572;2023-06-22T13:13:20;12.02;;;9.45;;
18249;SDS011;27980;52.126;5.572;2023-06-22T13:15:49;10.43;;;9.10;;
18249;SDS011;27980;52.126;5.572;2023-06-22T13:18:18;11.60;;;8.98;;
18249;SDS011;27980;52.126;5.572;2023-06-22T13:20:44;13.02;;;10.15;;
18249;SDS011;27980;52.126;5.572;2023-06-22T13:23:11;12.25;;;9.77;;
18249;SDS011;27980;52.126;5.572;2023-06-22T13:25:38;13.38;;;10.18;;
18249;SDS011;27980;52.126;5.572;2023-06-22T13:28:05;11.48;;;9.57;;
18249;SDS011;27980;52.126;5.572;2023-06-22T13:30:36;11.27;;;9.30;;
18249;SDS011;27980;52.126;5.572;2023-06-22T13:33:02;11.00;;;9.35;;
18249;SDS011;27980;52.126;5.572;2023-06-22T13:35:31;12.20;;;10.15;;
18249;SDS011;27980;52.126;5.572;2023-06-22T13:37:57;11.50;;;9.93;;
18249;SDS011;27980;52.126;5.572;2023-06-22T13:40:23;12.27;;;8.70;;
18249;SDS011;27980;52.126;5.572;2023-06-22T13:42:50;12.60;;;10.55;;
18249;SDS011;27980;52.126;5.572;2023-06-22T13:45:18;12.05;;;10.65;;
18249;SDS011;27980;52.126;5.572;2023-06-22T13:47:46;12.80;;;10.30;;
18249;SDS011;27980;52.126;5.572;2023-06-22T13:50:13;11.43;;;9.93;;
18249;SDS011;27980;52.126;5.572;2023-06-22T13:52:40;11.23;;;10.00;;
18249;SDS011;27980;52.126;5.572;2023-06-22T13:55:06;13.45;;;9.52;;
18249;SDS011;27980;52.126;5.572;2023-06-22T13:57:33;12.02;;;9.93;;
18249;SDS011;27980;52.126;5.572;2023-06-22T13:59:59;15.70;;;9.98;;
18249;SDS011;27980;52.126;5.572;2023-06-22T14:02:26;12.73;;;10.38;;
18249;SDS011;27980;52.126;5.572;2023-06-22T14:04:54;12.50;;;9.23;;
18249;SDS011;27980;52.126;5.572;2023-06-22T14:07:23;12.05;;;9.75;;
18249;SDS011;27980;52.126;5.572;2023-06-22T14:09:49;11.48;;;9.00;;
18249;SDS011;27980;52.126;5.572;2023-06-22T14:12:16;11.32;;;7.88;;
18249;SDS011;27980;52.126;5.572;2023-06-22T14:14:43;9.45;;;8.15;;
18249;SDS011;27980;52.126;5.572;2023-06-22T14:17:09;13.23;;;9.07;;
18249;SDS011;27980;52.126;5.572;2023-06-22T14:19:36;11.07;;;8.50;;
18249;SDS011;27980;52.126;5.572;2023-06-22T14:22:06;10.02;;;7.75;;
18249;SDS011;27980;52.126;5.572;2023-06-22T14:24:32;11.15;;;8.27;;
18249;SDS011;27980;52.126;5.572;2023-06-22T14:26:59;8.43;;;7.53;;
18249;SDS011;27980;52.126;5.572;2023-06-22T14:29:28;10.73;;;7.82;;
18249;SDS011;27980;52.126;5.572;2023-06-22T14:31:54;11.10;;;8.00;;
18249;SDS011;27980;52.126;5.572;2023-06-22T14:34:20;9.32;;;7.38;;
18249;SDS011;27980;52.126;5.572;2023-06-22T14:36:48;7.95;;;6.88;;
18249;SDS011;27980;52.126;5.572;2023-06-22T14:39:15;8.52;;;6.88;;